sensor_id;sensor_type;location;lat;lon;timestamp;P1;durP1;ratioP1;P2;durP2;ratioP2
57565;SDS011;63999;43.882;-0.310;2023-03-03T00:01:28;33.47;;;23.35;;
57565;SDS011;63999;43.882;-0.310;2023-03-03T00:03:56;28.40;;;22.02;;
57565;SDS011;63999;43.882;-0.310;2023-03-03T00:06:22;31.38;;;23.67;;
57565;SDS011;63999;43.882;-0.310;2023-03-03T00:08:48;32.15;;;24.15;;
57565;SDS011;63999;43.882;-0.310;2023-03-03T00:11:15;29.35;;;22.15;;
57565;SDS011;63999;43.882;-0.310;2023-03-03T00:13:45;29.23;;;21.83;;
57565;SDS011;63999;43.882;-0.310;2023-03-03T00:16:14;29.85;;;22.02;;
57565;SDS011;63999;43.882;-0.310;2023-03-03T00:18:47;28.85;;;22.25;;
57565;SDS011;63999;43.882;-0.310;2023-03-03T00:21:22;29.98;;;22.05;;
57565;SDS011;63999;43.882;-0.310;2023-03-03T00:23:50;27.42;;;21.33;;
57565;SDS011;63999;43.882;-0.310;2023-03-03T00:28:48;32.25;;;22.52;;
57565;SDS011;63999;43.882;-0.310;2023-03-03T00:31:27;26.75;;;19.70;;
57565;SDS011;63999;43.882;-0.310;2023-03-03T00:33:56;23.45;;;18.38;;
57565;SDS011;63999;43.882;-0.310;2023-03-03T00:36:45;25.77;;;19.55;;
57565;SDS011;63999;43.882;-0.310;2023-03-03T00:41:50;26.95;;;20.17;;
57565;SDS011;63999;43.882;-0.310;2023-03-03T00:46:55;27.02;;;20.80;;
57565;SDS011;63999;43.882;-0.310;2023-03-03T00:49:26;26.40;;;20.42;;
57565;SDS011;63999;43.882;-0.310;2023-03-03T00:51:52;29.50;;;20.92;;
57565;SDS011;63999;43.882;-0.310;2023-03-03T00:54:18;28.17;;;21.27;;
57565;SDS011;63999;43.882;-0.310;2023-03-03T00:56:44;30.88;;;23.52;;
57565;SDS011;63999;43.882;-0.310;2023-03-03T00:59:10;34.00;;;25.02;;
57565;SDS011;63999;43.882;-0.310;2023-03-03T01:01:36;34.00;;;25.55;;
57565;SDS011;63999;43.882;-0.310;2023-03-03T01:04:01;35.05;;;26.05;;
57565;SDS011;63999;43.882;-0.310;2023-03-03T01:06:27;38.05;;;25.98;;
57565;SDS011;63999;43.882;-0.310;2023-03-03T01:08:53;36.50;;;26.50;;
57565;SDS011;63999;43.882;-0.310;2023-03-03T01:11:24;37.00;;;26.02;;
57565;SDS011;63999;43.882;-0.310;2023-03-03T01:13:52;34.40;;;25.45;;
57565;SDS011;63999;43.882;-0.310;2023-03-03T01:16:18;35.47;;;25.70;;
57565;SDS011;63999;43.882;-0.310;2023-03-03T01:18:45;35.05;;;26.20;;
57565;SDS011;63999;43.882;-0.310;2023-03-03T01:21:11;34.08;;;25.73;;
57565;SDS011;63999;43.882;-0.310;2023-03-03T01:23:37;33.83;;;25.73;;
57565;SDS011;63999;43.882;-0.310;2023-03-03T01:26:03;32.90;;;25.13;;
57565;SDS011;63999;43.882;-0.310;2023-03-03T01:28:31;38.15;;;25.33;;
57565;SDS011;63999;43.882;-0.310;2023-03-03T01:31:01;33.80;;;24.52;;
57565;SDS011;63999;43.882;-0.310;2023-03-03T01:33:28;32.03;;;23.85;;
57565;SDS011;63999;43.882;-0.310;2023-03-03T01:35:55;33.53;;;26.02;;
57565;SDS011;63999;43.882;-0.310;2023-03-03T01:38:21;34.00;;;24.95;;
57565;SDS011;63999;43.882;-0.310;2023-03-03T01:40:54;30.02;;;23.90;;
57565;SDS011;63999;43.882;-0.310;2023-03-03T01:43:22;31.10;;;23.45;;
57565;SDS011;63999;43.882;-0.310;2023-03-03T01:48:18;36.40;;;25.52;;
57565;SDS011;63999;43.882;-0.310;2023-03-03T01:53:20;31.88;;;24.17;;
57565;SDS011;63999;43.882;-0.310;2023-03-03T01:55:52;31.65;;;24.17;;
57565;SDS011;63999;43.882;-0.310;2023-03-03T01:58:23;32.75;;;23.55;;
57565;SDS011;63999;43.882;-0.310;2023-03-03T02:00:54;31.83;;;23.55;;
57565;SDS011;63999;43.882;-0.310;2023-03-03T02:03:23;32.75;;;24.73;;
57565;SDS011;63999;43.882;-0.310;2023-03-03T02:05:51;32.47;;;23.98;;
57565;SDS011;63999;43.882;-0.310;2023-03-03T02:08:24;31.20;;;23.63;;
57565;SDS011;63999;43.882;-0.310;2023-03-03T02:10:59;33.53;;;24.48;;
57565;SDS011;63999;43.882;-0.310;2023-03-03T02:13:26;32.97;;;24.58;;
57565;SDS011;63999;43.882;-0.310;2023-03-03T02:15:52;33.03;;;25.05;;
57565;SDS011;63999;43.882;-0.310;2023-03-03T02:18:18;32.67;;;22.90;;
57565;SDS011;63999;43.882;-0.310;2023-03-03T02:23:44;30.77;;;22.77;;
57565;SDS011;63999;43.882;-0.310;2023-03-03T02:26:31;30.48;;;22.98;;
57565;SDS011;63999;43.882;-0.310;2023-03-03T02:29:01;32.80;;;23.92;;
57565;SDS011;63999;43.882;-0.310;2023-03-03T02:31:29;32.72;;;23.95;;
57565;SDS011;63999;43.882;-0.310;2023-03-03T02:33:55;33.20;;;23.88;;
57565;SDS011;63999;43.882;-0.310;2023-03-03T02:36:22;31.52;;;24.73;;
57565;SDS011;63999;43.882;-0.310;2023-03-03T02:44:10;35.03;;;25.48;;
57565;SDS011;63999;43.882;-0.310;2023-03-03T02:46:39;34.28;;;25.20;;
57565;SDS011;63999;43.882;-0.310;2023-03-03T02:49:08;35.25;;;25.88;;
57565;SDS011;63999;43.882;-0.310;2023-03-03T02:51:35;33.05;;;25.48;;
57565;SDS011;63999;43.882;-0.310;2023-03-03T02:54:01;34.67;;;25.70;;
57565;SDS011;63999;43.882;-0.310;2023-03-03T02:56:27;38.35;;;26.98;;
57565;SDS011;63999;43.882;-0.310;2023-03-03T02:58:53;37.45;;;25.77;;
57565;SDS011;63999;43.882;-0.310;2023-03-03T03:01:19;34.00;;;25.52;;
57565;SDS011;63999;43.882;-0.310;2023-03-03T03:03:45;36.30;;;26.98;;
57565;SDS011;63999;43.882;-0.310;2023-03-03T03:06:11;33.75;;;25.65;;
57565;SDS011;63999;43.882;-0.310;2023-03-03T03:08:36;38.03;;;27.02;;
57565;SDS011;63999;43.882;-0.310;2023-03-03T03:11:03;33.67;;;25.48;;
57565;SDS011;63999;43.882;-0.310;2023-03-03T03:13:30;33.13;;;24.95;;
57565;SDS011;63999;43.882;-0.310;2023-03-03T03:15:56;34.53;;;25.83;;
57565;SDS011;63999;43.882;-0.310;2023-03-03T03:18:23;34.38;;;26.33;;
57565;SDS011;63999;43.882;-0.310;2023-03-03T03:20:49;34.83;;;25.08;;
57565;SDS011;63999;43.882;-0.310;2023-03-03T03:23:15;37.58;;;27.15;;
57565;SDS011;63999;43.882;-0.310;2023-03-03T03:25:41;37.85;;;27.42;;
57565;SDS011;63999;43.882;-0.310;2023-03-03T03:28:11;39.33;;;27.20;;
57565;SDS011;63999;43.882;-0.310;2023-03-03T03:30:38;35.17;;;26.73;;
57565;SDS011;63999;43.882;-0.310;2023-03-03T03:33:05;38.10;;;26.85;;
57565;SDS011;63999;43.882;-0.310;2023-03-03T03:35:32;38.90;;;27.85;;
57565;SDS011;63999;43.882;-0.310;2023-03-03T03:37:58;38.45;;;27.35;;
57565;SDS011;63999;43.882;-0.310;2023-03-03T03:40:24;36.85;;;27.27;;
57565;SDS011;63999;43.882;-0.310;2023-03-03T03:42:51;39.35;;;27.42;;
57565;SDS011;63999;43.882;-0.310;2023-03-03T03:45:17;38.22;;;27.63;;
57565;SDS011;63999;43.882;-0.310;2023-03-03T03:47:43;36.63;;;27.33;;
57565;SDS011;63999;43.882;-0.310;2023-03-03T03:50:09;38.65;;;27.75;;
57565;SDS011;63999;43.882;-0.310;2023-03-03T03:52:35;37.75;;;27.45;;
57565;SDS011;63999;43.882;-0.310;2023-03-03T03:55:01;38.50;;;26.90;;
57565;SDS011;63999;43.882;-0.310;2023-03-03T03:57:27;33.15;;;25.23;;
57565;SDS011;63999;43.882;-0.310;2023-03-03T03:59:53;34.53;;;25.83;;
57565;SDS011;63999;43.882;-0.310;2023-03-03T04:02:19;33.53;;;25.15;;
57565;SDS011;63999;43.882;-0.310;2023-03-03T04:04:44;33.40;;;25.35;;
57565;SDS011;63999;43.882;-0.310;2023-03-03T04:07:10;38.28;;;27.20;;
57565;SDS011;63999;43.882;-0.310;2023-03-03T04:09:36;37.85;;;26.67;;
57565;SDS011;63999;43.882;-0.310;2023-03-03T04:12:02;40.35;;;27.35;;
57565;SDS011;63999;43.882;-0.310;2023-03-03T04:14:28;39.70;;;27.60;;
57565;SDS011;63999;43.882;-0.310;2023-03-03T04:16:54;37.70;;;28.25;;
57565;SDS011;63999;43.882;-0.310;2023-03-03T04:19:20;34.53;;;26.90;;
57565;SDS011;63999;43.882;-0.310;2023-03-03T04:21:46;36.65;;;26.70;;
57565;SDS011;63999;43.882;-0.310;2023-03-03T04:24:12;37.30;;;27.58;;
57565;SDS011;63999;43.882;-0.310;2023-03-03T04:26:37;38.83;;;28.15;;
57565;SDS011;63999;43.882;-0.310;2023-03-03T04:29:03;34.05;;;25.38;;
57565;SDS011;63999;43.882;-0.310;2023-03-03T04:31:29;35.10;;;25.98;;
57565;SDS011;63999;43.882;-0.310;2023-03-03T04:33:55;40.60;;;27.05;;
57565;SDS011;63999;43.882;-0.310;2023-03-03T04:36:21;39.60;;;27.63;;
57565;SDS011;63999;43.882;-0.310;2023-03-03T04:38:47;40.00;;;28.00;;
57565;SDS011;63999;43.882;-0.310;2023-03-03T04:41:13;37.92;;;27.75;;
57565;SDS011;63999;43.882;-0.310;2023-03-03T04:43:40;36.78;;;27.35;;
57565;SDS011;63999;43.882;-0.310;2023-03-03T04:46:06;40.33;;;27.52;;
57565;SDS011;63999;43.882;-0.310;2023-03-03T04:48:32;37.05;;;26.33;;
57565;SDS011;63999;43.882;-0.310;2023-03-03T04:50:58;35.53;;;26.55;;
57565;SDS011;63999;43.882;-0.310;2023-03-03T04:53:24;37.47;;;26.95;;
57565;SDS011;63999;43.882;-0.310;2023-03-03T04:55:50;38.33;;;28.42;;
57565;SDS011;63999;43.882;-0.310;2023-03-03T04:58:16;35.00;;;26.67;;
57565;SDS011;63999;43.882;-0.310;2023-03-03T05:00:44;39.92;;;27.67;;
57565;SDS011;63999;43.882;-0.310;2023-03-03T05:03:17;37.72;;;28.00;;
57565;SDS011;63999;43.882;-0.310;2023-03-03T05:05:44;38.05;;;26.65;;
57565;SDS011;63999;43.882;-0.310;2023-03-03T05:08:11;36.35;;;25.38;;
57565;SDS011;63999;43.882;-0.310;2023-03-03T05:10:37;38.95;;;27.10;;
57565;SDS011;63999;43.882;-0.310;2023-03-03T05:13:04;37.10;;;26.20;;
57565;SDS011;63999;43.882;-0.310;2023-03-03T05:15:30;35.92;;;26.70;;
57565;SDS011;63999;43.882;-0.310;2023-03-03T05:17:56;35.92;;;25.50;;
57565;SDS011;63999;43.882;-0.310;2023-03-03T05:20:23;36.97;;;27.50;;
57565;SDS011;63999;43.882;-0.310;2023-03-03T05:22:49;36.83;;;27.33;;
57565;SDS011;63999;43.882;-0.310;2023-03-03T05:25:16;35.10;;;26.38;;
57565;SDS011;63999;43.882;-0.310;2023-03-03T05:27:42;39.67;;;28.30;;
57565;SDS011;63999;43.882;-0.310;2023-03-03T05:30:08;39.15;;;28.00;;
57565;SDS011;63999;43.882;-0.310;2023-03-03T05:32:35;36.33;;;27.17;;
57565;SDS011;63999;43.882;-0.310;2023-03-03T05:35:01;35.72;;;27.20;;
57565;SDS011;63999;43.882;-0.310;2023-03-03T05:37:27;35.92;;;25.95;;
57565;SDS011;63999;43.882;-0.310;2023-03-03T05:39:53;35.40;;;27.00;;
57565;SDS011;63999;43.882;-0.310;2023-03-03T05:42:19;38.63;;;27.50;;
57565;SDS011;63999;43.882;-0.310;2023-03-03T05:44:44;35.55;;;26.25;;
57565;SDS011;63999;43.882;-0.310;2023-03-03T05:47:10;37.83;;;27.35;;
57565;SDS011;63999;43.882;-0.310;2023-03-03T05:49:36;39.33;;;28.13;;
57565;SDS011;63999;43.882;-0.310;2023-03-03T05:52:02;39.95;;;28.58;;
57565;SDS011;63999;43.882;-0.310;2023-03-03T05:54:28;38.72;;;29.63;;
57565;SDS011;63999;43.882;-0.310;2023-03-03T05:56:54;39.47;;;27.73;;
57565;SDS011;63999;43.882;-0.310;2023-03-03T05:59:21;43.60;;;31.08;;
57565;SDS011;63999;43.882;-0.310;2023-03-03T06:01:49;44.10;;;32.08;;
57565;SDS011;63999;43.882;-0.310;2023-03-03T06:04:15;43.13;;;32.42;;
57565;SDS011;63999;43.882;-0.310;2023-03-03T06:06:41;46.70;;;34.55;;
57565;SDS011;63999;43.882;-0.310;2023-03-03T06:09:08;42.33;;;32.22;;
57565;SDS011;63999;43.882;-0.310;2023-03-03T06:11:35;42.22;;;32.10;;
57565;SDS011;63999;43.882;-0.310;2023-03-03T06:14:01;40.53;;;29.67;;
57565;SDS011;63999;43.882;-0.310;2023-03-03T06:16:27;46.97;;;33.10;;
57565;SDS011;63999;43.882;-0.310;2023-03-03T06:18:53;43.50;;;33.58;;
57565;SDS011;63999;43.882;-0.310;2023-03-03T06:21:19;43.58;;;31.65;;
57565;SDS011;63999;43.882;-0.310;2023-03-03T06:23:44;41.70;;;29.80;;
57565;SDS011;63999;43.882;-0.310;2023-03-03T06:26:10;40.92;;;28.23;;
57565;SDS011;63999;43.882;-0.310;2023-03-03T06:28:36;38.53;;;28.40;;
57565;SDS011;63999;43.882;-0.310;2023-03-03T06:31:02;37.22;;;28.50;;
57565;SDS011;63999;43.882;-0.310;2023-03-03T06:33:28;41.22;;;28.73;;
57565;SDS011;63999;43.882;-0.310;2023-03-03T06:35:53;39.30;;;29.45;;
57565;SDS011;63999;43.882;-0.310;2023-03-03T06:38:19;41.05;;;29.30;;
57565;SDS011;63999;43.882;-0.310;2023-03-03T06:40:45;39.25;;;29.05;;
57565;SDS011;63999;43.882;-0.310;2023-03-03T06:43:12;42.13;;;30.63;;
57565;SDS011;63999;43.882;-0.310;2023-03-03T06:45:38;40.22;;;30.55;;
57565;SDS011;63999;43.882;-0.310;2023-03-03T06:48:04;38.55;;;29.00;;
57565;SDS011;63999;43.882;-0.310;2023-03-03T06:50:30;43.45;;;30.08;;
57565;SDS011;63999;43.882;-0.310;2023-03-03T06:53:14;42.28;;;29.75;;
57565;SDS011;63999;43.882;-0.310;2023-03-03T06:55:43;41.22;;;30.35;;
57565;SDS011;63999;43.882;-0.310;2023-03-03T06:58:13;45.15;;;31.27;;
57565;SDS011;63999;43.882;-0.310;2023-03-03T07:00:41;43.25;;;31.65;;
57565;SDS011;63999;43.882;-0.310;2023-03-03T07:03:15;43.00;;;31.52;;
57565;SDS011;63999;43.882;-0.310;2023-03-03T07:05:43;48.88;;;33.55;;
57565;SDS011;63999;43.882;-0.310;2023-03-03T07:08:13;67.50;;;40.50;;
57565;SDS011;63999;43.882;-0.310;2023-03-03T07:10:41;55.03;;;36.00;;
57565;SDS011;63999;43.882;-0.310;2023-03-03T07:15:58;105.72;;;62.13;;
57565;SDS011;63999;43.882;-0.310;2023-03-03T07:23:52;49.78;;;34.67;;
57565;SDS011;63999;43.882;-0.310;2023-03-03T07:26:28;47.10;;;33.67;;
57565;SDS011;63999;43.882;-0.310;2023-03-03T07:29:00;49.28;;;34.15;;
57565;SDS011;63999;43.882;-0.310;2023-03-03T07:31:44;44.30;;;31.98;;
57565;SDS011;63999;43.882;-0.310;2023-03-03T07:36:45;48.00;;;34.72;;
57565;SDS011;63999;43.882;-0.310;2023-03-03T07:41:50;46.70;;;32.08;;
57565;SDS011;63999;43.882;-0.310;2023-03-03T07:44:25;42.65;;;31.20;;
57565;SDS011;63999;43.882;-0.310;2023-03-03T07:46:59;45.35;;;32.70;;
57565;SDS011;63999;43.882;-0.310;2023-03-03T07:49:42;46.42;;;31.42;;
57565;SDS011;63999;43.882;-0.310;2023-03-03T07:52:19;46.55;;;33.00;;
57565;SDS011;63999;43.882;-0.310;2023-03-03T07:55:19;45.50;;;31.23;;
57565;SDS011;63999;43.882;-0.310;2023-03-03T07:57:47;46.22;;;31.73;;
57565;SDS011;63999;43.882;-0.310;2023-03-03T08:02:45;44.45;;;31.48;;
57565;SDS011;63999;43.882;-0.310;2023-03-03T08:07:50;43.53;;;32.15;;
57565;SDS011;63999;43.882;-0.310;2023-03-03T08:10:30;42.45;;;31.10;;
57565;SDS011;63999;43.882;-0.310;2023-03-03T08:12:59;46.55;;;32.60;;
57565;SDS011;63999;43.882;-0.310;2023-03-03T08:15:37;62.78;;;41.78;;
57565;SDS011;63999;43.882;-0.310;2023-03-03T08:18:07;56.83;;;40.50;;
57565;SDS011;63999;43.882;-0.310;2023-03-03T08:20:46;62.03;;;42.42;;
57565;SDS011;63999;43.882;-0.310;2023-03-03T08:23:14;47.95;;;34.95;;
57565;SDS011;63999;43.882;-0.310;2023-03-03T08:25:42;49.45;;;36.22;;
57565;SDS011;63999;43.882;-0.310;2023-03-03T08:28:08;61.53;;;45.00;;
57565;SDS011;63999;43.882;-0.310;2023-03-03T08:30:34;58.53;;;39.53;;
57565;SDS011;63999;43.882;-0.310;2023-03-03T08:33:00;55.85;;;38.45;;
57565;SDS011;63999;43.882;-0.310;2023-03-03T08:35:26;49.25;;;35.83;;
57565;SDS011;63999;43.882;-0.310;2023-03-03T08:37:52;60.00;;;38.05;;
57565;SDS011;63999;43.882;-0.310;2023-03-03T08:40:18;53.10;;;35.38;;
57565;SDS011;63999;43.882;-0.310;2023-03-03T08:42:44;47.40;;;34.00;;
57565;SDS011;63999;43.882;-0.310;2023-03-03T08:45:10;47.95;;;33.88;;
57565;SDS011;63999;43.882;-0.310;2023-03-03T08:47:37;48.53;;;34.47;;
57565;SDS011;63999;43.882;-0.310;2023-03-03T08:50:04;47.33;;;33.47;;
57565;SDS011;63999;43.882;-0.310;2023-03-03T08:52:30;45.85;;;33.92;;
57565;SDS011;63999;43.882;-0.310;2023-03-03T08:54:56;46.83;;;33.47;;
57565;SDS011;63999;43.882;-0.310;2023-03-03T08:57:22;47.22;;;33.88;;
57565;SDS011;63999;43.882;-0.310;2023-03-03T08:59:47;47.20;;;34.08;;
57565;SDS011;63999;43.882;-0.310;2023-03-03T09:02:13;46.83;;;34.33;;
57565;SDS011;63999;43.882;-0.310;2023-03-03T09:04:41;48.60;;;34.25;;
57565;SDS011;63999;43.882;-0.310;2023-03-03T09:07:07;46.70;;;34.70;;
57565;SDS011;63999;43.882;-0.310;2023-03-03T09:09:33;50.38;;;34.33;;
57565;SDS011;63999;43.882;-0.310;2023-03-03T09:12:04;48.42;;;34.92;;
57565;SDS011;63999;43.882;-0.310;2023-03-03T09:14:47;48.63;;;35.10;;
57565;SDS011;63999;43.882;-0.310;2023-03-03T09:17:23;49.75;;;35.85;;
57565;SDS011;63999;43.882;-0.310;2023-03-03T09:19:54;47.83;;;34.97;;
57565;SDS011;63999;43.882;-0.310;2023-03-03T09:22:24;49.08;;;33.40;;
57565;SDS011;63999;43.882;-0.310;2023-03-03T09:24:54;49.03;;;34.25;;
57565;SDS011;63999;43.882;-0.310;2023-03-03T09:29:54;43.88;;;32.80;;
57565;SDS011;63999;43.882;-0.310;2023-03-03T09:32:29;47.55;;;33.25;;
57565;SDS011;63999;43.882;-0.310;2023-03-03T09:48:55;47.13;;;32.95;;
57565;SDS011;63999;43.882;-0.310;2023-03-03T09:54:22;49.70;;;33.03;;
57565;SDS011;63999;43.882;-0.310;2023-03-03T10:02:23;56.45;;;40.95;;
57565;SDS011;63999;43.882;-0.310;2023-03-03T10:10:24;56.42;;;39.63;;
57565;SDS011;63999;43.882;-0.310;2023-03-03T10:21:06;57.88;;;38.58;;
57565;SDS011;63999;43.882;-0.310;2023-03-03T10:28:55;52.72;;;35.10;;
57565;SDS011;63999;43.882;-0.310;2023-03-03T10:47:26;44.15;;;32.95;;
57565;SDS011;63999;43.882;-0.310;2023-03-03T10:50:02;42.25;;;31.05;;
57565;SDS011;63999;43.882;-0.310;2023-03-03T10:58:20;56.58;;;35.92;;
57565;SDS011;63999;43.882;-0.310;2023-03-03T11:09:51;51.28;;;35.80;;
57565;SDS011;63999;43.882;-0.310;2023-03-03T11:20:50;46.40;;;33.58;;
57565;SDS011;63999;43.882;-0.310;2023-03-03T11:26:33;51.58;;;35.90;;
57565;SDS011;63999;43.882;-0.310;2023-03-03T11:40:11;52.05;;;35.65;;
57565;SDS011;63999;43.882;-0.310;2023-03-03T11:45:46;40.70;;;28.83;;
57565;SDS011;63999;43.882;-0.310;2023-03-03T11:48:20;42.58;;;30.63;;
57565;SDS011;63999;43.882;-0.310;2023-03-03T11:51:14;53.28;;;36.90;;
57565;SDS011;63999;43.882;-0.310;2023-03-03T11:56:58;56.25;;;38.42;;
57565;SDS011;63999;43.882;-0.310;2023-03-03T12:02:34;38.50;;;28.20;;
57565;SDS011;63999;43.882;-0.310;2023-03-03T12:16:46;54.35;;;37.00;;
57565;SDS011;63999;43.882;-0.310;2023-03-03T12:22:33;49.72;;;34.58;;
57565;SDS011;63999;43.882;-0.310;2023-03-03T12:36:03;54.97;;;37.10;;
57565;SDS011;63999;43.882;-0.310;2023-03-03T12:46:44;40.03;;;30.08;;
57565;SDS011;63999;43.882;-0.310;2023-03-03T12:49:21;53.92;;;35.47;;
57565;SDS011;63999;43.882;-0.310;2023-03-03T12:52:10;39.55;;;28.90;;
57565;SDS011;63999;43.882;-0.310;2023-03-03T13:06:10;41.13;;;30.83;;
57565;SDS011;63999;43.882;-0.310;2023-03-03T13:14:36;40.30;;;28.42;;
57565;SDS011;63999;43.882;-0.310;2023-03-03T13:19:56;38.50;;;27.80;;
57565;SDS011;63999;43.882;-0.310;2023-03-03T13:25:16;43.65;;;30.25;;
57565;SDS011;63999;43.882;-0.310;2023-03-03T13:28:00;39.72;;;27.90;;
57565;SDS011;63999;43.882;-0.310;2023-03-03T13:30:34;43.88;;;30.02;;
57565;SDS011;63999;43.882;-0.310;2023-03-03T13:41:25;38.35;;;27.55;;
57565;SDS011;63999;43.882;-0.310;2023-03-03T13:44:08;34.47;;;25.27;;
57565;SDS011;63999;43.882;-0.310;2023-03-03T13:47:05;35.72;;;25.42;;
57565;SDS011;63999;43.882;-0.310;2023-03-03T13:52:27;35.45;;;26.02;;
57565;SDS011;63999;43.882;-0.310;2023-03-03T13:55:00;42.53;;;29.48;;
57565;SDS011;63999;43.882;-0.310;2023-03-03T14:07:50;32.95;;;24.80;;
57565;SDS011;63999;43.882;-0.310;2023-03-03T14:13:09;36.33;;;25.48;;
57565;SDS011;63999;43.882;-0.310;2023-03-03T14:15:52;35.75;;;25.73;;
57565;SDS011;63999;43.882;-0.310;2023-03-03T14:18:28;38.20;;;26.70;;
57565;SDS011;63999;43.882;-0.310;2023-03-03T14:21:03;33.05;;;23.55;;
57565;SDS011;63999;43.882;-0.310;2023-03-03T14:23:54;43.08;;;29.92;;
57565;SDS011;63999;43.882;-0.310;2023-03-03T14:26:35;40.40;;;27.35;;
57565;SDS011;63999;43.882;-0.310;2023-03-03T14:31:52;35.25;;;24.17;;
57565;SDS011;63999;43.882;-0.310;2023-03-03T14:36:49;40.22;;;27.10;;
57565;SDS011;63999;43.882;-0.310;2023-03-03T14:44:54;40.00;;;27.48;;
57565;SDS011;63999;43.882;-0.310;2023-03-03T14:47:23;36.72;;;25.35;;
57565;SDS011;63999;43.882;-0.310;2023-03-03T14:49:52;42.67;;;28.37;;
57565;SDS011;63999;43.882;-0.310;2023-03-03T14:52:20;40.38;;;28.02;;
57565;SDS011;63999;43.882;-0.310;2023-03-03T14:54:56;40.33;;;27.30;;
57565;SDS011;63999;43.882;-0.310;2023-03-03T15:05:54;40.95;;;26.40;;
57565;SDS011;63999;43.882;-0.310;2023-03-03T15:08:32;38.58;;;27.42;;
57565;SDS011;63999;43.882;-0.310;2023-03-03T15:11:12;39.40;;;27.35;;
57565;SDS011;63999;43.882;-0.310;2023-03-03T15:13:41;41.25;;;27.27;;
57565;SDS011;63999;43.882;-0.310;2023-03-03T15:21:25;41.65;;;28.85;;
57565;SDS011;63999;43.882;-0.310;2023-03-03T15:24:09;41.75;;;29.92;;
57565;SDS011;63999;43.882;-0.310;2023-03-03T15:26:55;41.85;;;28.60;;
57565;SDS011;63999;43.882;-0.310;2023-03-03T15:29:39;40.63;;;28.50;;
57565;SDS011;63999;43.882;-0.310;2023-03-03T15:32:26;43.95;;;27.75;;
57565;SDS011;63999;43.882;-0.310;2023-03-03T15:50:58;38.75;;;28.75;;
57565;SDS011;63999;43.882;-0.310;2023-03-03T15:53:40;40.00;;;28.23;;
57565;SDS011;63999;43.882;-0.310;2023-03-03T15:58:55;37.17;;;26.20;;
57565;SDS011;63999;43.882;-0.310;2023-03-03T16:01:41;38.80;;;28.15;;
57565;SDS011;63999;43.882;-0.310;2023-03-03T16:04:19;39.90;;;26.35;;
57565;SDS011;63999;43.882;-0.310;2023-03-03T16:15:27;38.85;;;26.98;;
57565;SDS011;63999;43.882;-0.310;2023-03-03T16:28:42;37.28;;;26.45;;
57565;SDS011;63999;43.882;-0.310;2023-03-03T16:31:22;39.08;;;27.25;;
57565;SDS011;63999;43.882;-0.310;2023-03-03T16:34:00;42.47;;;27.95;;
57565;SDS011;63999;43.882;-0.310;2023-03-03T16:42:34;40.80;;;26.73;;
57565;SDS011;63999;43.882;-0.310;2023-03-03T16:58:53;37.42;;;25.75;;
57565;SDS011;63999;43.882;-0.310;2023-03-03T17:01:48;37.13;;;25.77;;
57565;SDS011;63999;43.882;-0.310;2023-03-03T17:04:47;36.42;;;25.92;;
57565;SDS011;63999;43.882;-0.310;2023-03-03T17:10:02;36.70;;;25.80;;
57565;SDS011;63999;43.882;-0.310;2023-03-03T17:18:24;32.63;;;23.58;;
57565;SDS011;63999;43.882;-0.310;2023-03-03T17:21:06;38.55;;;25.98;;
57565;SDS011;63999;43.882;-0.310;2023-03-03T17:23:48;38.58;;;27.67;;
57565;SDS011;63999;43.882;-0.310;2023-03-03T17:26:29;38.17;;;26.38;;
57565;SDS011;63999;43.882;-0.310;2023-03-03T17:57:40;41.55;;;28.65;;
57565;SDS011;63999;43.882;-0.310;2023-03-03T18:03:45;41.10;;;28.38;;
57565;SDS011;63999;43.882;-0.310;2023-03-03T18:17:30;38.90;;;27.80;;
57565;SDS011;63999;43.882;-0.310;2023-03-03T18:22:49;38.75;;;24.75;;
57565;SDS011;63999;43.882;-0.310;2023-03-03T18:28:19;29.02;;;20.70;;
57565;SDS011;63999;43.882;-0.310;2023-03-03T18:30:59;28.80;;;20.85;;
57565;SDS011;63999;43.882;-0.310;2023-03-03T18:38:55;30.77;;;22.35;;
57565;SDS011;63999;43.882;-0.310;2023-03-03T18:41:24;31.52;;;21.05;;
57565;SDS011;63999;43.882;-0.310;2023-03-03T18:43:56;29.45;;;21.38;;
57565;SDS011;63999;43.882;-0.310;2023-03-03T18:49:07;30.38;;;22.20;;
57565;SDS011;63999;43.882;-0.310;2023-03-03T18:56:44;37.00;;;25.63;;
57565;SDS011;63999;43.882;-0.310;2023-03-03T19:02:41;30.95;;;21.15;;
57565;SDS011;63999;43.882;-0.310;2023-03-03T19:12:54;31.65;;;21.83;;
57565;SDS011;63999;43.882;-0.310;2023-03-03T19:18:02;33.78;;;22.83;;
57565;SDS011;63999;43.882;-0.310;2023-03-03T19:20:41;31.48;;;22.58;;
57565;SDS011;63999;43.882;-0.310;2023-03-03T19:23:23;36.22;;;25.63;;
57565;SDS011;63999;43.882;-0.310;2023-03-03T19:28:48;29.55;;;22.33;;
57565;SDS011;63999;43.882;-0.310;2023-03-03T19:42:28;33.10;;;23.98;;
57565;SDS011;63999;43.882;-0.310;2023-03-03T19:48:05;33.88;;;24.92;;
57565;SDS011;63999;43.882;-0.310;2023-03-03T19:59:41;40.92;;;27.02;;
57565;SDS011;63999;43.882;-0.310;2023-03-03T20:02:26;38.30;;;26.67;;
57565;SDS011;63999;43.882;-0.310;2023-03-03T20:05:15;39.75;;;26.70;;
57565;SDS011;63999;43.882;-0.310;2023-03-03T20:13:53;37.22;;;25.67;;
57565;SDS011;63999;43.882;-0.310;2023-03-03T20:19:27;39.13;;;26.00;;
57565;SDS011;63999;43.882;-0.310;2023-03-03T20:22:22;34.25;;;25.45;;
57565;SDS011;63999;43.882;-0.310;2023-03-03T20:33:28;37.45;;;26.15;;
57565;SDS011;63999;43.882;-0.310;2023-03-03T20:39:02;34.13;;;25.67;;
57565;SDS011;63999;43.882;-0.310;2023-03-03T20:41:33;38.53;;;25.95;;
57565;SDS011;63999;43.882;-0.310;2023-03-03T20:44:27;33.78;;;24.55;;
57565;SDS011;63999;43.882;-0.310;2023-03-03T20:55:09;39.13;;;26.08;;
57565;SDS011;63999;43.882;-0.310;2023-03-03T21:00:28;43.15;;;31.42;;
57565;SDS011;63999;43.882;-0.310;2023-03-03T21:05:54;40.30;;;29.52;;
57565;SDS011;63999;43.882;-0.310;2023-03-03T21:08:20;41.58;;;29.05;;
57565;SDS011;63999;43.882;-0.310;2023-03-03T21:11:04;40.13;;;28.13;;
57565;SDS011;63999;43.882;-0.310;2023-03-03T21:13:37;37.83;;;27.25;;
57565;SDS011;63999;43.882;-0.310;2023-03-03T21:16:15;36.65;;;26.80;;
57565;SDS011;63999;43.882;-0.310;2023-03-03T21:19:01;39.42;;;27.40;;
57565;SDS011;63999;43.882;-0.310;2023-03-03T21:21:35;35.40;;;25.98;;
57565;SDS011;63999;43.882;-0.310;2023-03-03T21:24:03;39.22;;;26.55;;
57565;SDS011;63999;43.882;-0.310;2023-03-03T21:26:45;34.92;;;26.35;;
57565;SDS011;63999;43.882;-0.310;2023-03-03T21:31:47;39.90;;;26.27;;
57565;SDS011;63999;43.882;-0.310;2023-03-03T21:36:47;38.60;;;26.33;;
57565;SDS011;63999;43.882;-0.310;2023-03-03T21:41:54;35.13;;;25.70;;
57565;SDS011;63999;43.882;-0.310;2023-03-03T21:47:05;32.88;;;24.83;;
57565;SDS011;63999;43.882;-0.310;2023-03-03T21:49:32;35.67;;;26.52;;
57565;SDS011;63999;43.882;-0.310;2023-03-03T21:51:58;36.28;;;24.88;;
57565;SDS011;63999;43.882;-0.310;2023-03-03T21:54:25;31.25;;;23.75;;
57565;SDS011;63999;43.882;-0.310;2023-03-03T21:56:51;34.03;;;23.38;;
57565;SDS011;63999;43.882;-0.310;2023-03-03T21:59:17;32.95;;;24.08;;
57565;SDS011;63999;43.882;-0.310;2023-03-03T22:01:43;32.47;;;23.70;;
57565;SDS011;63999;43.882;-0.310;2023-03-03T22:04:10;34.90;;;25.25;;
57565;SDS011;63999;43.882;-0.310;2023-03-03T22:06:35;33.22;;;23.77;;
57565;SDS011;63999;43.882;-0.310;2023-03-03T22:09:02;33.88;;;24.33;;
57565;SDS011;63999;43.882;-0.310;2023-03-03T22:11:29;34.00;;;24.02;;
57565;SDS011;63999;43.882;-0.310;2023-03-03T22:13:54;31.63;;;22.88;;